createdAt,value
2018-08-08T00:01:51.075Z,11.37
2018-08-08T00:04:54.709Z,12.17
2018-08-08T00:07:58.343Z,11.50
2018-08-08T00:11:02.235Z,11.30
2018-08-08T00:14:06.185Z,11.17
2018-08-08T00:17:09.890Z,12.57
2018-08-08T00:20:13.780Z,11.47
2018-08-08T00:23:17.327Z,11.30
2018-08-08T00:26:20.993Z,10.67
2018-08-08T00:29:24.698Z,11.90
2018-08-08T00:32:28.355Z,11.87
2018-08-08T00:35:32.119Z,11.73
2018-08-08T00:38:35.781Z,12.47
2018-08-08T00:41:39.580Z,12.17
2018-08-08T00:44:43.249Z,12.03
2018-08-08T00:47:47.818Z,11.93
2018-08-08T00:50:51.410Z,12.03
2018-08-08T00:53:55.145Z,11.13
2018-08-08T00:56:58.849Z,11.70
2018-08-08T01:00:02.614Z,11.80
2018-08-08T01:03:06.264Z,12.40
2018-08-08T01:06:09.896Z,12.20
2018-08-08T01:09:13.551Z,11.63
2018-08-08T01:12:17.198Z,11.90
2018-08-08T01:15:21.005Z,11.73
2018-08-08T01:18:24.753Z,11.30
2018-08-08T01:21:28.423Z,11.57
2018-08-08T01:24:32.170Z,11.33
2018-08-08T01:27:35.895Z,10.97
2018-08-08T01:30:39.544Z,10.97
2018-08-08T01:33:43.106Z,11.60
2018-08-08T01:36:46.759Z,10.57
2018-08-08T01:39:50.320Z,10.97
2018-08-08T01:42:53.950Z,11.00
2018-08-08T01:45:57.802Z,11.40
2018-08-08T01:49:01.294Z,11.30
2018-08-08T01:52:05.187Z,11.10
2018-08-08T01:55:10.346Z,11.53
2018-08-08T01:58:13.991Z,10.50
2018-08-08T02:01:17.739Z,10.90
2018-08-08T02:04:21.394Z,9.90
2018-08-08T02:07:25.228Z,10.40
2018-08-08T02:10:28.924Z,9.53
2018-08-08T02:13:32.681Z,10.30
2018-08-08T02:16:36.379Z,11.23
2018-08-08T02:19:40.084Z,9.87
2018-08-08T02:22:44.135Z,11.50
2018-08-08T02:25:47.947Z,11.13
2018-08-08T02:28:51.505Z,10.70
2018-08-08T02:31:55.272Z,11.30
2018-08-08T02:34:59.116Z,10.80
2018-08-08T02:38:02.833Z,11.07
2018-08-08T02:41:07.390Z,10.83
2018-08-08T02:44:11.031Z,10.53
2018-08-08T02:47:14.656Z,10.80
2018-08-08T02:50:19.872Z,10.83
2018-08-08T02:54:22.746Z,10.47
2018-08-08T02:57:26.441Z,10.80
2018-08-08T03:00:30.096Z,10.60
2018-08-08T03:03:33.791Z,10.63
2018-08-08T03:06:37.471Z,10.93
2018-08-08T03:09:41.143Z,10.80
2018-08-08T03:12:44.975Z,10.83
2018-08-08T03:15:48.663Z,10.83
2018-08-08T03:18:52.291Z,10.60
2018-08-08T03:21:55.947Z,10.90
2018-08-08T03:24:59.786Z,10.20
2018-08-08T03:28:03.591Z,11.07
2018-08-08T03:31:07.536Z,10.30
2018-08-08T03:34:11.226Z,9.90
2018-08-08T03:37:14.894Z,10.80
2018-08-08T03:40:18.995Z,10.00
2018-08-08T03:43:22.620Z,10.50
2018-08-08T03:46:26.248Z,10.10
2018-08-08T03:49:29.955Z,10.43
2018-08-08T03:52:33.708Z,10.77
2018-08-08T03:55:37.367Z,10.40
2018-08-08T03:58:41.051Z,10.83
2018-08-08T04:01:44.851Z,10.17
2018-08-08T04:04:48.761Z,9.90
2018-08-08T04:07:52.353Z,10.53
2018-08-08T04:10:56.050Z,10.77
2018-08-08T04:13:59.609Z,10.73
2018-08-08T04:17:03.416Z,10.80
2018-08-08T04:20:08.116Z,10.27
2018-08-08T04:23:11.782Z,10.57
2018-08-08T04:26:15.537Z,11.13
2018-08-08T04:29:19.238Z,10.43
2018-08-08T04:32:23.019Z,10.03
2018-08-08T04:35:26.745Z,10.20
2018-08-08T04:38:30.488Z,10.20
2018-08-08T04:41:34.202Z,10.20
2018-08-08T04:44:37.843Z,9.80
2018-08-08T04:47:42.012Z,10.33
2018-08-08T04:50:45.751Z,10.80
2018-08-08T04:53:49.417Z,10.20
2018-08-08T04:56:53.247Z,10.10
2018-08-08T04:59:56.932Z,10.20
2018-08-08T05:03:00.591Z,10.17
2018-08-08T05:06:04.240Z,9.97
2018-08-08T05:09:10.610Z,10.47
2018-08-08T05:12:14.517Z,10.60
2018-08-08T05:15:19.130Z,10.80
2018-08-08T05:18:22.851Z,10.23
2018-08-08T05:21:26.571Z,10.90
2018-08-08T05:24:30.386Z,10.00
2018-08-08T05:27:34.123Z,10.53
2018-08-08T05:30:37.895Z,10.50
2018-08-08T05:33:41.522Z,10.20
2018-08-08T05:36:45.201Z,10.50
2018-08-08T05:39:48.933Z,9.93
2018-08-08T05:42:53.767Z,10.10
2018-08-08T05:45:57.457Z,10.10
2018-08-08T05:49:02.378Z,10.60
2018-08-08T05:52:06.279Z,11.40
2018-08-08T05:55:11.143Z,12.57
2018-08-08T05:58:14.894Z,11.53
2018-08-08T06:01:18.527Z,11.80
2018-08-08T06:04:22.379Z,12.57
2018-08-08T06:07:26.097Z,12.77
2018-08-08T06:10:29.765Z,12.70
2018-08-08T06:13:33.447Z,12.63
2018-08-08T06:16:37.223Z,11.50
2018-08-08T06:19:40.866Z,12.10
2018-08-08T06:22:45.488Z,12.00
2018-08-08T06:25:49.349Z,12.20
2018-08-08T06:28:53.092Z,11.37
2018-08-08T06:31:56.849Z,11.37
2018-08-08T06:35:00.573Z,11.83
2018-08-08T06:38:04.299Z,11.10
2018-08-08T06:41:08.073Z,11.83
2018-08-08T06:44:11.787Z,12.70
2018-08-08T06:47:15.570Z,12.93
2018-08-08T06:50:19.285Z,12.63
2018-08-08T06:53:23.147Z,13.27
2018-08-08T06:56:26.784Z,13.40
2018-08-08T06:59:30.658Z,13.60
2018-08-08T07:02:34.283Z,13.33
2018-08-08T07:05:38.005Z,12.50
2018-08-08T07:08:41.684Z,14.40
2018-08-08T07:11:45.348Z,12.30
2018-08-08T07:14:49.109Z,13.10
2018-08-08T07:17:52.759Z,13.37
2018-08-08T07:20:56.388Z,13.23
2018-08-08T07:24:00.204Z,13.33
2018-08-08T07:27:04.044Z,13.30
2018-08-08T07:30:11.998Z,12.30
2018-08-08T07:33:15.768Z,12.50
2018-08-08T07:36:19.413Z,12.40
2018-08-08T07:39:23.037Z,12.33
2018-08-08T07:42:26.799Z,12.50
2018-08-08T07:45:30.429Z,11.50
2018-08-08T07:48:34.120Z,11.10
2018-08-08T07:51:37.811Z,11.00
2018-08-08T07:54:41.578Z,10.50
2018-08-08T07:57:45.699Z,10.17
2018-08-08T08:00:49.319Z,10.23
2018-08-08T08:03:53.397Z,10.43
2018-08-08T08:06:57.095Z,10.60
2018-08-08T08:10:00.777Z,9.70
2018-08-08T08:13:04.530Z,10.47
2018-08-08T08:16:08.157Z,10.47
2018-08-08T08:19:11.910Z,10.30
2018-08-08T08:22:15.609Z,9.20
2018-08-08T08:25:19.515Z,8.37
2018-08-08T08:28:23.144Z,10.13
2018-08-08T08:31:26.844Z,9.40
2018-08-08T08:34:30.512Z,9.73
2018-08-08T08:37:34.387Z,8.77
2018-08-08T08:40:38.103Z,8.87
2018-08-08T08:43:41.771Z,8.43
2018-08-08T08:46:45.447Z,8.57
2018-08-08T08:49:49.124Z,9.33
2018-08-08T08:52:52.800Z,8.43
2018-08-08T08:55:56.456Z,8.07
2018-08-08T08:59:00.121Z,6.80
2018-08-08T09:02:03.845Z,6.87
2018-08-08T09:05:08.495Z,6.90
2018-08-08T09:08:12.108Z,6.90
2018-08-08T09:11:15.811Z,7.23
2018-08-08T09:14:19.600Z,6.30
2018-08-08T09:17:23.330Z,6.03
2018-08-08T09:20:26.956Z,5.87
2018-08-08T09:23:30.844Z,5.77
2018-08-08T09:26:34.512Z,5.73
2018-08-08T09:29:42.402Z,5.57
2018-08-08T09:32:46.137Z,4.80
2018-08-08T09:35:49.816Z,5.30
2018-08-08T09:38:53.426Z,5.10
2018-08-08T09:41:57.129Z,4.57
2018-08-08T09:45:00.737Z,4.83
2018-08-08T09:48:05.463Z,4.80
2018-08-08T09:51:09.281Z,5.03
2018-08-08T09:54:12.921Z,4.67
2018-08-08T09:57:16.498Z,6.10
2018-08-08T10:00:29.067Z,5.57
2018-08-08T10:03:40.384Z,5.77
2018-08-08T10:06:44.125Z,5.50
2018-08-08T10:09:47.840Z,6.03
2018-08-08T10:12:51.591Z,5.83
2018-08-08T10:15:55.317Z,6.20
2018-08-08T10:18:59.076Z,6.80
2018-08-08T10:22:02.843Z,7.00
2018-08-08T10:25:06.772Z,6.60
2018-08-08T10:28:10.443Z,6.70
2018-08-08T10:31:14.062Z,6.87
2018-08-08T10:34:17.707Z,6.80
2018-08-08T10:37:21.399Z,7.00
2018-08-08T10:40:25.098Z,6.43
2018-08-08T10:43:28.817Z,6.87
2018-08-08T10:46:32.653Z,7.17
2018-08-08T10:49:36.255Z,6.53
2018-08-08T10:52:39.945Z,7.90
2018-08-08T10:55:43.609Z,7.97
2018-08-08T10:58:47.447Z,8.53
2018-08-08T11:01:51.175Z,8.63
2018-08-08T11:04:54.834Z,9.60
2018-08-08T11:07:58.515Z,9.30
2018-08-08T11:11:02.290Z,11.00
2018-08-08T11:14:06.106Z,11.10
2018-08-08T11:17:09.731Z,11.87
2018-08-08T11:20:13.496Z,11.23
2018-08-08T11:23:17.423Z,11.13
2018-08-08T11:26:21.100Z,12.40
2018-08-08T11:29:24.847Z,12.33
2018-08-08T11:32:28.661Z,11.93
2018-08-08T11:35:32.407Z,12.70
2018-08-08T11:38:36.016Z,13.73
2018-08-08T11:41:39.982Z,12.60
2018-08-08T11:44:43.677Z,13.60
2018-08-08T11:47:47.382Z,14.30
2018-08-08T11:50:51.002Z,14.87
2018-08-08T11:53:54.775Z,15.53
2018-08-08T11:56:58.413Z,15.03
2018-08-08T12:00:02.115Z,15.30
2018-08-08T12:03:05.851Z,16.37
2018-08-08T12:06:09.656Z,15.87
2018-08-08T12:09:13.219Z,15.90
2018-08-08T12:12:17.039Z,16.00
2018-08-08T12:15:21.164Z,14.33
2018-08-08T12:18:24.829Z,14.70
2018-08-08T12:21:28.505Z,13.97
2018-08-08T12:24:32.273Z,14.00
2018-08-08T12:27:35.886Z,13.57
2018-08-08T12:30:39.572Z,13.90
2018-08-08T12:33:43.177Z,14.10
2018-08-08T12:36:46.788Z,13.17
2018-08-08T12:39:50.412Z,14.20
2018-08-08T12:42:54.087Z,13.63
2018-08-08T12:45:57.720Z,13.30
2018-08-08T12:49:01.464Z,12.60
2018-08-08T12:52:05.266Z,14.00
2018-08-08T12:55:08.872Z,12.93
2018-08-08T12:58:12.500Z,13.60
2018-08-08T13:01:16.185Z,12.63
2018-08-08T13:04:19.802Z,11.73
2018-08-08T13:07:23.330Z,12.10
2018-08-08T13:10:27.095Z,12.10
2018-08-08T13:13:30.747Z,11.93
2018-08-08T13:16:34.338Z,12.30
2018-08-08T13:19:38.093Z,11.03
2018-08-08T13:22:41.764Z,12.10
2018-08-08T13:25:45.567Z,12.40
2018-08-08T13:28:49.204Z,12.40
2018-08-08T13:31:52.876Z,12.07
2018-08-08T13:34:56.689Z,11.83
2018-08-08T13:38:00.576Z,10.70
2018-08-08T13:41:04.203Z,10.63
2018-08-08T13:44:08.243Z,11.10
2018-08-08T13:47:11.915Z,10.33
2018-08-08T13:50:15.668Z,10.50
2018-08-08T13:53:19.404Z,10.50
2018-08-08T13:56:23.112Z,12.07
2018-08-08T13:59:27.014Z,13.10
2018-08-08T14:02:30.748Z,11.77
2018-08-08T14:05:34.407Z,11.20
2018-08-08T14:08:38.076Z,11.17
2018-08-08T14:11:41.816Z,11.70
2018-08-08T14:14:45.597Z,11.17
2018-08-08T14:17:49.223Z,11.23
2018-08-08T14:20:52.958Z,11.20
2018-08-08T14:23:56.798Z,10.63
2018-08-08T14:27:00.713Z,11.13
2018-08-08T14:30:05.226Z,10.90
2018-08-08T14:33:08.895Z,10.90
2018-08-08T14:36:12.769Z,10.00
2018-08-08T14:39:16.430Z,10.50
2018-08-08T14:42:20.155Z,9.83
2018-08-08T14:45:23.803Z,11.00
2018-08-08T14:48:27.553Z,10.83
2018-08-08T14:51:31.315Z,11.07
2018-08-08T14:54:35.078Z,10.87
2018-08-08T14:57:38.730Z,11.27
2018-08-08T15:00:42.439Z,11.40
2018-08-08T15:03:46.288Z,12.03
2018-08-08T15:06:50.105Z,11.40
2018-08-08T15:09:53.823Z,12.00
2018-08-08T15:12:57.488Z,10.80
2018-08-08T15:16:01.106Z,10.90
2018-08-08T15:19:05.029Z,10.33
2018-08-08T15:22:08.649Z,9.87
2018-08-08T15:25:12.564Z,10.73
2018-08-08T15:28:16.173Z,10.47
2018-08-08T15:31:20.029Z,9.63
2018-08-08T15:34:23.820Z,10.43
2018-08-08T15:37:28.043Z,9.90
2018-08-08T15:40:31.477Z,9.47
2018-08-08T15:43:35.173Z,10.07
2018-08-08T15:46:38.853Z,10.60
2018-08-08T15:49:42.595Z,9.97
2018-08-08T15:52:46.305Z,10.20
2018-08-08T15:55:50.158Z,9.77
2018-08-08T15:58:53.795Z,9.43
2018-08-08T16:01:57.674Z,9.73
2018-08-08T16:05:01.371Z,9.60
2018-08-08T16:08:05.126Z,9.43
2018-08-08T16:11:08.988Z,8.90
2018-08-08T16:14:12.620Z,9.30
2018-08-08T16:17:16.284Z,9.50
2018-08-08T16:20:20.000Z,9.70
2018-08-08T16:23:23.764Z,9.50
2018-08-08T16:26:27.393Z,9.90
2018-08-08T16:29:31.040Z,9.40
2018-08-08T16:32:34.717Z,9.57
2018-08-08T16:35:38.436Z,8.93
2018-08-08T16:38:42.209Z,9.80
2018-08-08T16:41:45.843Z,8.83
2018-08-08T16:44:49.747Z,9.70
2018-08-08T16:47:53.449Z,8.53
2018-08-08T16:50:57.191Z,9.27
2018-08-08T16:54:00.855Z,8.90
2018-08-08T16:57:04.504Z,9.30
2018-08-08T17:00:10.776Z,8.50
2018-08-08T17:03:14.539Z,9.57
2018-08-08T17:06:18.241Z,9.47
2018-08-08T17:09:21.975Z,8.93
2018-08-08T17:12:25.615Z,9.60
2018-08-08T17:15:29.480Z,8.77
2018-08-08T17:18:33.163Z,9.20
2018-08-08T17:21:36.891Z,8.70
2018-08-08T17:24:40.663Z,8.80
2018-08-08T17:27:44.276Z,8.80
2018-08-08T17:30:47.963Z,8.90
2018-08-08T17:33:51.624Z,8.63
2018-08-08T17:36:55.365Z,8.67
2018-08-08T17:39:59.075Z,8.80
2018-08-08T17:43:02.846Z,8.40
2018-08-08T17:46:06.531Z,8.20
2018-08-08T17:49:10.209Z,7.60
2018-08-08T17:52:13.953Z,8.00
2018-08-08T17:55:17.731Z,7.60
2018-08-08T17:58:21.339Z,7.50
2018-08-08T18:01:25.053Z,7.80
2018-08-08T18:04:28.790Z,8.43
2018-08-08T18:07:32.600Z,7.87
2018-08-08T18:10:36.353Z,7.50
2018-08-08T18:13:40.482Z,7.83
2018-08-08T18:16:44.141Z,8.73
2018-08-08T18:19:47.915Z,7.60
2018-08-08T18:22:51.775Z,7.60
2018-08-08T18:25:55.582Z,7.13
2018-08-08T18:28:59.306Z,7.60
2018-08-08T18:32:02.963Z,7.40
2018-08-08T18:35:06.733Z,7.23
2018-08-08T18:38:10.527Z,7.23
2018-08-08T18:41:14.318Z,7.90
2018-08-08T18:44:18.258Z,7.53
2018-08-08T18:47:21.927Z,7.97
2018-08-08T18:50:25.619Z,8.37
2018-08-08T18:53:29.381Z,7.63
2018-08-08T18:56:33.090Z,8.20
2018-08-08T18:59:36.755Z,7.23
2018-08-08T19:02:40.485Z,7.67
2018-08-08T19:05:44.258Z,7.70
2018-08-08T19:08:48.007Z,7.50
2018-08-08T19:11:51.798Z,7.63
2018-08-08T19:14:55.676Z,8.03
2018-08-08T19:17:59.329Z,6.97
2018-08-08T19:21:03.093Z,7.47
2018-08-08T19:24:06.962Z,7.37
2018-08-08T19:27:10.794Z,7.50
2018-08-08T19:30:14.582Z,7.63
2018-08-08T19:33:18.444Z,7.70
2018-08-08T19:36:22.157Z,7.50
2018-08-08T19:39:25.927Z,7.20
2018-08-08T19:42:29.823Z,8.33
2018-08-08T19:45:33.456Z,7.57
2018-08-08T19:48:37.108Z,7.67
2018-08-08T19:51:40.871Z,7.80
2018-08-08T19:54:44.607Z,7.23
2018-08-08T19:57:48.193Z,8.33
2018-08-08T20:00:52.246Z,7.50
2018-08-08T20:03:55.898Z,7.67
2018-08-08T20:06:59.665Z,8.53
2018-08-08T20:10:03.542Z,6.90
2018-08-08T20:13:07.307Z,7.80
2018-08-08T20:16:11.013Z,7.00
2018-08-08T20:19:14.641Z,7.20
2018-08-08T20:22:19.044Z,7.97
2018-08-08T20:25:22.772Z,7.70
2018-08-08T20:28:26.528Z,8.10
2018-08-08T20:31:30.222Z,8.33
2018-08-08T20:34:33.833Z,8.93
2018-08-08T20:37:37.623Z,8.53
2018-08-08T20:40:41.575Z,9.20
2018-08-08T20:43:45.232Z,9.90
2018-08-08T20:46:48.934Z,9.60
2018-08-08T20:49:52.583Z,8.93
2018-08-08T20:52:56.414Z,9.07
2018-08-08T20:56:00.127Z,9.73
2018-08-08T20:59:03.912Z,9.07
2018-08-08T21:02:07.662Z,8.50
2018-08-08T21:05:11.307Z,9.80
2018-08-08T21:08:15.431Z,9.90
2018-08-08T21:11:19.127Z,10.33
2018-08-08T21:14:22.753Z,9.30
2018-08-08T21:17:26.362Z,9.40
2018-08-08T21:20:30.187Z,10.30
2018-08-08T21:23:33.995Z,9.93
2018-08-08T21:26:37.729Z,10.63
2018-08-08T21:29:41.584Z,10.33
2018-08-08T21:32:45.249Z,10.57
2018-08-08T21:35:48.913Z,10.50
2018-08-08T21:38:52.539Z,10.20
2018-08-08T21:41:56.181Z,11.00
2018-08-08T21:44:59.888Z,12.50
2018-08-08T21:48:03.822Z,10.00
2018-08-08T21:51:07.463Z,11.17
2018-08-08T21:54:22.003Z,11.00
2018-08-08T21:57:36.621Z,10.27
2018-08-08T22:00:51.242Z,9.70
2018-08-08T22:04:05.903Z,9.93
2018-08-08T22:07:20.530Z,9.30
2018-08-08T22:10:35.174Z,10.40
2018-08-08T22:13:49.913Z,10.37
2018-08-08T22:17:04.409Z,10.07
2018-08-08T22:20:08.303Z,10.10
2018-08-08T22:23:12.049Z,10.00
2018-08-08T22:26:15.857Z,9.97
2018-08-08T22:29:19.558Z,9.40
2018-08-08T22:32:23.227Z,9.80
2018-08-08T22:35:27.070Z,10.57
2018-08-08T22:38:30.789Z,10.40
2018-08-08T22:41:34.463Z,10.80
2018-08-08T22:44:38.159Z,10.00
2018-08-08T22:47:41.802Z,9.77
2018-08-08T22:50:45.472Z,9.70
2018-08-08T22:53:49.170Z,9.30
2018-08-08T22:56:52.732Z,10.20
2018-08-08T22:59:56.394Z,11.00
2018-08-08T23:02:59.994Z,10.07
2018-08-08T23:06:03.681Z,10.90
2018-08-08T23:09:09.920Z,9.63
2018-08-08T23:12:13.712Z,10.47
2018-08-08T23:15:17.289Z,10.80
2018-08-08T23:18:20.995Z,11.13
2018-08-08T23:21:24.622Z,9.10
2018-08-08T23:24:28.325Z,10.20
2018-08-08T23:27:32.001Z,10.30
2018-08-08T23:30:35.608Z,10.93
2018-08-08T23:33:39.254Z,11.00
2018-08-08T23:36:42.970Z,10.50
2018-08-08T23:39:46.703Z,10.37
2018-08-08T23:42:50.338Z,10.30
2018-08-08T23:45:53.936Z,10.77
2018-08-08T23:48:57.596Z,9.90
2018-08-08T23:52:01.166Z,9.80
2018-08-08T23:55:05.185Z,10.67
2018-08-08T23:58:08.956Z,10.67
